Time;durP1;ratioP1;P1;durP2;ratioP2;P2;SDS_P1;SDS_P2;PMS_P1;PMS_P2;Temp;Humidity;BMP_temperature;BMP_pressure;BME280_temperature;BME280_humidity;BME280_pressure;Samples;Min_cycle;Max_cycle;Signal;HPM_P1;HPM_P2
2022/07/20 00:00:05;;;;;;;3.45;2.50;;;24.50;62.20;;;;;;10396019;28;20025;-62
2022/07/20 00:05:06;;;;;;;3.65;2.42;;;24.60;62.30;;;;;;10390497;28;20095;-62
2022/07/20 00:15:27;;;;;;;3.00;2.30;;;24.60;62.30;;;;;;10409697;28;20045;-62
2022/07/20 00:20:28;;;;;;;2.50;2.10;;;24.50;62.20;;;;;;10408584;28;20025;-62
2022/07/20 00:25:29;;;;;;;4.03;2.95;;;24.60;62.20;;;;;;10372299;28;20091;-62
2022/07/20 00:30:30;;;;;;;4.68;2.30;;;24.50;62.20;;;;;;10375294;28;20091;-63
2022/07/20 00:35:30;;;;;;;2.92;1.98;;;24.50;62.20;;;;;;10380055;28;20682;-63
2022/07/20 00:40:31;;;;;;;3.35;2.55;;;24.50;62.20;;;;;;10377415;28;20045;-62
2022/07/20 00:45:32;;;;;;;4.07;2.10;;;24.50;62.20;;;;;;10371054;28;20034;-62
2022/07/20 00:50:33;;;;;;;2.90;2.38;;;24.60;62.10;;;;;;10376322;28;20044;-63
2022/07/20 00:55:34;;;;;;;3.28;1.95;;;24.60;62.10;;;;;;10406787;28;20087;-65
2022/07/20 01:00:35;;;;;;;3.92;2.30;;;24.60;62.20;;;;;;10395344;28;20059;-62
2022/07/20 01:05:36;;;;;;;2.70;1.92;;;24.50;62.20;;;;;;10390795;28;20531;-62
2022/07/20 01:10:37;;;;;;;3.88;2.22;;;24.60;62.20;;;;;;10381175;28;20369;-62
2022/07/20 01:15:38;;;;;;;2.13;1.73;;;24.50;62.10;;;;;;10393431;28;20046;-62
2022/07/20 01:20:47;;;;;;;2.60;2.20;;;24.50;62.00;;;;;;10392313;28;20033;-62
2022/07/20 01:25:48;;;;;;;3.13;2.10;;;24.50;62.20;;;;;;10367295;28;20129;-64
2022/07/20 01:30:49;;;;;;;3.10;2.47;;;24.50;62.20;;;;;;10373210;28;20038;-62
2022/07/20 01:35:49;;;;;;;3.15;2.20;;;24.50;62.10;;;;;;10349248;28;20536;-63
2022/07/20 01:40:50;;;;;;;2.53;2.13;;;24.50;62.00;;;;;;10366939;28;20499;-62
2022/07/20 01:45:51;;;;;;;4.22;2.53;;;24.50;61.90;;;;;;10382654;28;20038;-62
2022/07/20 01:50:52;;;;;;;3.20;2.13;;;24.50;62.70;;;;;;10409923;28;20056;-62
2022/07/20 01:55:53;;;;;;;4.18;2.05;;;24.50;62.10;;;;;;10396782;28;20416;-63
2022/07/20 02:00:53;;;;;;;2.47;2.15;;;24.50;62.10;;;;;;10390165;28;20025;-63
2022/07/20 02:05:54;;;;;;;4.57;1.95;;;24.50;62.00;;;;;;10407195;28;20048;-62
2022/07/20 02:10:55;;;;;;;3.13;2.58;;;24.50;61.90;;;;;;10385726;28;20481;-62
2022/07/20 02:21:20;;;;;;;3.38;2.30;;;24.50;62.10;;;;;;10402189;28;20447;-62
2022/07/20 02:26:21;;;;;;;2.67;1.98;;;24.50;62.10;;;;;;10371474;28;20034;-62
2022/07/20 02:31:23;;;;;;;3.20;2.45;;;24.50;62.00;;;;;;10381842;28;20378;-63
2022/07/20 02:36:23;;;;;;;4.68;2.60;;;24.50;61.90;;;;;;10372552;28;20393;-62
2022/07/20 02:41:24;;;;;;;2.35;2.13;;;24.50;61.90;;;;;;10371704;28;20050;-63
2022/07/20 02:46:25;;;;;;;3.13;2.38;;;24.50;61.90;;;;;;10371957;28;20485;-62
2022/07/20 02:51:26;;;;;;;2.38;2.17;;;24.50;62.00;;;;;;10370592;28;20666;-62
2022/07/20 02:56:26;;;;;;;3.58;2.30;;;24.50;62.00;;;;;;10362028;28;20034;-62
2022/07/20 03:01:27;;;;;;;2.97;2.10;;;24.50;61.90;;;;;;10373106;28;20117;-62
2022/07/20 03:06:28;;;;;;;4.35;2.20;;;24.50;61.80;;;;;;10408284;28;20037;-62
2022/07/20 03:11:28;;;;;;;4.20;2.63;;;24.50;61.90;;;;;;10386126;28;20120;-62
2022/07/20 03:16:29;;;;;;;2.97;1.58;;;24.50;62.00;;;;;;10408339;28;20040;-63
2022/07/20 03:21:30;;;;;;;3.63;2.50;;;24.40;61.80;;;;;;10393988;28;20045;-62
2022/07/20 03:26:30;;;;;;;2.80;2.50;;;24.50;61.90;;;;;;10370215;28;20120;-62
2022/07/20 03:31:31;;;;;;;2.83;2.30;;;24.50;61.80;;;;;;10403365;28;20117;-62
2022/07/20 03:36:32;;;;;;;2.58;2.13;;;24.50;61.90;;;;;;10387488;28;20069;-62
2022/07/20 03:41:32;;;;;;;3.92;2.28;;;24.40;61.90;;;;;;10366885;28;20123;-62
2022/07/20 03:46:33;;;;;;;2.58;2.28;;;24.40;62.50;;;;;;10368499;28;20030;-62
2022/07/20 03:51:37;;;;;;;3.70;2.03;;;24.40;61.80;;;;;;10369771;28;20042;-62
2022/07/20 03:56:41;;;;;;;2.75;2.30;;;24.40;61.80;;;;;;10398462;28;20072;-62
2022/07/20 04:01:42;;;;;;;2.70;2.03;;;24.50;61.90;;;;;;10392851;28;20026;-63
2022/07/20 04:06:42;;;;;;;2.00;1.80;;;24.40;62.00;;;;;;10395251;28;20656;-62
2022/07/20 04:11:44;;;;;;;4.55;2.03;;;24.40;61.90;;;;;;10407822;28;20472;-62
2022/07/20 04:16:45;;;;;;;2.55;1.98;;;24.40;61.90;;;;;;10407938;28;20100;-62
2022/07/20 04:21:46;;;;;;;2.22;2.00;;;24.40;61.90;;;;;;10393054;28;20076;-63
2022/07/20 04:26:46;;;;;;;2.85;2.42;;;24.40;61.90;;;;;;10375639;28;20116;-63
2022/07/20 04:31:47;;;;;;;2.13;1.92;;;24.40;61.90;;;;;;10379366;28;20042;-62
2022/07/20 04:36:48;;;;;;;2.97;2.50;;;24.40;62.00;;;;;;10380569;28;20036;-62
2022/07/20 04:41:49;;;;;;;2.47;1.95;;;24.40;61.90;;;;;;10370968;28;20140;-63
2022/07/20 04:46:50;;;;;;;3.85;2.50;;;24.40;61.90;;;;;;10378997;28;20025;-63
2022/07/20 04:51:50;;;;;;;10.60;5.65;;;24.40;61.80;;;;;;10379756;28;20418;-62
2022/07/20 04:56:51;;;;;;;11.52;7.88;;;24.40;61.60;;;;;;10389478;28;20037;-60
2022/07/20 05:01:52;;;;;;;8.57;7.43;;;24.40;61.70;;;;;;10387767;28;20026;-59
2022/07/20 05:06:53;;;;;;;13.73;12.13;;;24.50;61.80;;;;;;10393038;28;20041;-60
2022/07/20 05:11:54;;;;;;;19.45;13.80;;;24.40;62.60;;;;;;10393498;28;20112;-61
2022/07/20 05:16:54;;;;;;;23.05;16.17;;;24.50;62.70;;;;;;10385081;28;20421;-60
2022/07/20 05:21:56;;;;;;;24.92;14.60;;;24.50;63.10;;;;;;10371268;28;20125;-62
2022/07/20 05:26:57;;;;;;;22.55;18.45;;;24.50;62.70;;;;;;10396685;28;20377;-62
2022/07/20 05:31:58;;;;;;;24.48;17.88;;;24.50;63.20;;;;;;10401783;28;20043;-63
2022/07/20 05:36:59;;;;;;;21.23;18.92;;;24.50;63.00;;;;;;10389876;28;20500;-62
2022/07/20 05:41:59;;;;;;;29.58;20.80;;;24.50;63.10;;;;;;10381585;28;20045;-62
2022/07/20 05:47:00;;;;;;;25.08;20.27;;;24.50;64.00;;;;;;10391589;28;20045;-62
2022/07/20 05:52:01;;;;;;;31.83;24.80;;;24.50;64.10;;;;;;10391111;28;20030;-62
2022/07/20 05:57:01;;;;;;;30.52;25.83;;;24.50;64.80;;;;;;10391965;28;20120;-61
2022/07/20 06:02:02;;;;;;;26.70;23.65;;;24.50;64.50;;;;;;10390301;28;20025;-60
2022/07/20 06:07:03;;;;;;;32.58;26.40;;;24.50;65.00;;;;;;10394971;28;20087;-61
2022/07/20 06:12:04;;;;;;;28.27;25.30;;;24.50;65.30;;;;;;10390820;28;20021;-62
2022/07/20 06:17:05;;;;;;;30.65;26.50;;;24.50;65.50;;;;;;10388628;28;20073;-62
2022/07/20 06:22:05;;;;;;;34.00;26.33;;;24.50;65.70;;;;;;10385304;28;20041;-62
2022/07/20 06:27:06;;;;;;;28.15;25.15;;;24.60;65.40;;;;;;10378230;28;20025;-62
2022/07/20 06:32:07;;;;;;;29.15;26.13;;;24.60;65.20;;;;;;10392146;28;20388;-62
2022/07/20 06:37:07;;;;;;;30.85;25.42;;;24.50;65.10;;;;;;10371777;28;20775;-62
2022/07/20 06:42:08;;;;;;;39.10;25.83;;;24.50;64.90;;;;;;10394201;28;20449;-62
2022/07/20 06:47:10;;;;;;;29.48;25.15;;;24.60;64.80;;;;;;10377609;28;20071;-61
2022/07/20 06:52:10;;;;;;;25.50;22.90;;;24.90;64.30;;;;;;10377735;28;20041;-63
2022/07/20 06:57:11;;;;;;;29.35;26.08;;;25.00;64.30;;;;;;10370100;28;20045;-62
2022/07/20 07:02:12;;;;;;;29.58;26.52;;;24.80;64.90;;;;;;10382910;28;20026;-60
2022/07/20 07:07:13;;;;;;;29.20;26.27;;;24.70;65.20;;;;;;10378471;28;20737;-63
2022/07/20 07:12:13;;;;;;;35.72;27.58;;;24.70;65.40;;;;;;10399535;28;20029;-63
2022/07/20 07:17:15;;;;;;;37.30;25.33;;;24.70;65.70;;;;;;10372244;28;20083;-60
2022/07/20 07:22:15;;;;;;;32.70;27.08;;;24.70;65.80;;;;;;10382269;28;20026;-60
2022/07/20 07:27:16;;;;;;;30.60;25.75;;;24.70;65.50;;;;;;10402141;28;20433;-60
2022/07/20 07:32:17;;;;;;;29.88;26.67;;;24.70;65.60;;;;;;10381403;28;20029;-60
2022/07/20 07:37:18;;;;;;;27.25;24.60;;;24.60;65.60;;;;;;10406871;28;20101;-59
2022/07/20 07:42:18;;;;;;;27.90;24.85;;;24.60;65.40;;;;;;10406392;28;20041;-60
2022/07/20 07:47:19;;;;;;;29.48;26.45;;;24.60;65.40;;;;;;10367716;28;20034;-60
2022/07/20 07:52:20;;;;;;;25.17;22.48;;;24.60;65.30;;;;;;10366811;28;20075;-60
2022/07/20 07:57:20;;;;;;;27.25;24.33;;;24.60;65.40;;;;;;10371145;28;20034;-58
2022/07/20 08:02:21;;;;;;;25.95;23.15;;;24.70;65.30;;;;;;10408681;28;20083;-60
2022/07/20 08:07:22;;;;;;;25.05;22.40;;;24.70;65.20;;;;;;10372119;28;20475;-60
2022/07/20 08:12:23;;;;;;;24.73;22.13;;;24.70;65.00;;;;;;10366107;28;20520;-60
2022/07/20 08:17:24;;;;;;;23.95;21.45;;;24.70;65.00;;;;;;10392013;28;20136;-61
2022/07/20 08:22:25;;;;;;;25.38;22.77;;;24.70;64.80;;;;;;10377863;28;20075;-60
2022/07/20 08:27:25;;;;;;;23.33;21.13;;;24.70;64.60;;;;;;10367012;28;20497;-60
2022/07/20 08:32:27;;;;;;;23.55;21.08;;;24.70;64.60;;;;;;10396324;28;20029;-59
2022/07/20 08:37:29;;;;;;;24.98;22.42;;;24.70;64.40;;;;;;10407324;28;20025;-61
2022/07/20 08:42:30;;;;;;;22.52;20.15;;;24.70;64.40;;;;;;10406465;28;20029;-60
2022/07/20 08:47:34;;;;;;;24.45;21.83;;;24.70;64.30;;;;;;10396740;28;20027;-58
2022/07/20 08:52:35;;;;;;;23.77;21.40;;;24.70;64.30;;;;;;10389512;28;20177;-58
2022/07/20 08:57:36;;;;;;;25.90;22.48;;;24.70;64.80;;;;;;10386894;28;20030;-60
2022/07/20 09:03:03;;;;;;;23.02;20.77;;;24.70;64.30;;;;;;10394818;28;20506;-60
2022/07/20 09:08:06;;;;;;;21.50;19.42;;;24.70;64.20;;;;;;10398029;28;20053;-60
2022/07/20 09:13:14;;;;;;;24.48;21.98;;;24.70;64.30;;;;;;10384827;28;20033;-60
2022/07/20 09:18:22;;;;;;;21.67;19.52;;;24.70;64.40;;;;;;10399815;28;20563;-60
2022/07/20 09:23:54;;;;;;;22.90;20.58;;;24.70;64.40;;;;;;10400251;28;20025;-59
2022/07/20 09:28:57;;;;;;;21.55;19.33;;;24.70;64.30;;;;;;10417492;28;20068;-60
2022/07/20 09:34:01;;;;;;;23.13;20.08;;;24.80;64.30;;;;;;10381182;28;20065;-60
2022/07/20 09:39:22;;;;;;;20.77;18.73;;;24.80;64.30;;;;;;10376447;28;20084;-60
2022/07/20 09:44:26;;;;;;;25.27;20.40;;;24.80;64.30;;;;;;10390029;28;20061;-60
2022/07/20 09:49:36;;;;;;;21.70;19.58;;;24.80;64.50;;;;;;10380267;28;20022;-60
2022/07/20 09:54:38;;;;;;;22.83;20.00;;;24.80;64.30;;;;;;10402399;28;20392;-60
2022/07/20 09:59:46;;;;;;;21.40;19.05;;;24.80;64.40;;;;;;10387481;28;20036;-61
2022/07/20 10:04:47;;;;;;;23.20;20.47;;;24.80;64.60;;;;;;10402063;28;20527;-61
2022/07/20 10:09:49;;;;;;;25.65;19.52;;;24.80;64.30;;;;;;10375289;28;20073;-61
2022/07/20 10:14:52;;;;;;;20.92;18.08;;;24.80;64.20;;;;;;10373456;28;20040;-61
2022/07/20 10:19:52;;;;;;;20.77;18.40;;;24.80;64.60;;;;;;10372227;28;20028;-60
2022/07/20 10:25:14;;;;;;;23.58;17.88;;;24.80;64.40;;;;;;10374645;28;20036;-61
2022/07/20 10:30:19;;;;;;;21.48;17.20;;;24.90;68.60;;;;;;10397427;28;20444;-61
2022/07/20 10:35:30;;;;;;;23.48;18.30;;;24.90;69.50;;;;;;10388201;28;20038;-61
2022/07/20 10:40:31;;;;;;;22.67;18.58;;;25.00;68.10;;;;;;10381283;28;20140;-61
2022/07/20 10:45:34;;;;;;;23.08;18.10;;;25.00;68.30;;;;;;10385287;28;20579;-59
2022/07/20 10:50:37;;;;;;;20.98;18.73;;;25.00;68.10;;;;;;10389022;28;20037;-59
2022/07/20 10:55:38;;;;;;;19.77;17.85;;;25.00;68.00;;;;;;10382256;28;20125;-59
2022/07/20 11:00:52;;;;;;;19.10;17.02;;;24.90;67.50;;;;;;10383558;28;20120;-59
2022/07/20 11:06:15;;;;;;;19.02;16.35;;;24.90;67.00;;;;;;10367651;28;20030;-58
2022/07/20 11:11:32;;;;;;;19.85;16.10;;;24.90;66.30;;;;;;10374777;28;20536;-59
2022/07/20 11:16:34;;;;;;;16.98;14.98;;;24.90;66.30;;;;;;10369778;28;20030;-58
2022/07/20 11:21:41;;;;;;;19.48;15.63;;;24.90;67.20;;;;;;10365707;28;20104;-59
2022/07/20 11:26:41;;;;;;;19.48;15.80;;;24.90;66.50;;;;;;10369277;28;20112;-58
2022/07/20 11:31:43;;;;;;;17.30;15.13;;;24.90;65.90;;;;;;10374690;28;20025;-59
2022/07/20 11:36:43;;;;;;;14.68;13.20;;;24.90;65.90;;;;;;10396299;28;20037;-59
2022/07/20 11:41:44;;;;;;;13.02;11.77;;;25.00;65.50;;;;;;10380921;28;20038;-59
2022/07/20 11:46:48;;;;;;;15.95;14.18;;;25.00;64.70;;;;;;10382294;28;20026;-59
2022/07/20 11:51:59;;;;;;;15.70;14.18;;;25.00;65.70;;;;;;10368427;28;20073;-59
2022/07/20 11:56:59;;;;;;;21.08;15.25;;;25.00;65.80;;;;;;10380958;28;20030;-59
2022/07/20 12:02:01;;;;;;;14.68;12.88;;;25.10;65.70;;;;;;10368190;28;20029;-59
2022/07/20 12:08:07;;;;;;;13.82;12.43;;;25.10;65.60;;;;;;10408631;28;20512;-59
2022/07/20 12:12:47;;;;;;;15.52;13.95;;;25.00;65.10;;;;;;10387901;28;20045;-59
2022/07/20 12:17:51;;;;;;;17.00;14.43;;;25.00;65.20;;;;;;10377598;28;20104;-59
2022/07/20 12:22:58;;;;;;;18.20;11.35;;;25.00;65.10;;;;;;10387414;28;20037;-59
2022/07/20 12:27:59;;;;;;;14.57;13.18;;;25.00;66.30;;;;;;10390904;28;20409;-59
2022/07/20 12:33:11;;;;;;;14.18;12.45;;;25.00;65.40;;;;;;10349697;28;20022;-58
2022/07/20 12:38:14;;;;;;;17.00;12.15;;;25.00;65.80;;;;;;10370988;28;20099;-58
2022/07/20 12:43:40;;;;;;;13.63;11.43;;;25.00;65.90;;;;;;10393145;28;20041;-60
2022/07/20 12:48:47;;;;;;;12.90;10.50;;;25.00;64.60;;;;;;10396629;28;20061;-60
2022/07/20 12:53:48;;;;;;;12.18;9.52;;;25.10;62.80;;;;;;10402737;28;20530;-60
2022/07/20 12:58:49;;;;;;;13.63;10.00;;;25.20;62.20;;;;;;10367716;28;20054;-60
2022/07/20 13:03:50;;;;;;;10.07;8.55;;;25.20;61.70;;;;;;10381298;28;20112;-60
2022/07/20 13:08:50;;;;;;;11.63;8.57;;;25.20;61.40;;;;;;10401542;28;20086;-60
2022/07/20 13:13:51;;;;;;;13.57;9.95;;;25.30;61.90;;;;;;10366902;28;20058;-61
2022/07/20 13:18:52;;;;;;;11.20;9.75;;;25.30;61.90;;;;;;10365957;28;20037;-61
2022/07/20 13:23:52;;;;;;;10.40;8.98;;;25.20;61.30;;;;;;10376978;28;20030;-60
2022/07/20 13:28:53;;;;;;;11.63;9.50;;;25.20;62.10;;;;;;10386126;28;20037;-61
2022/07/20 13:33:54;;;;;;;10.52;9.52;;;25.10;62.70;;;;;;10407361;28;20034;-60
2022/07/20 13:38:55;;;;;;;10.35;8.68;;;25.10;63.00;;;;;;10388592;28;20018;-61
2022/07/20 13:43:56;;;;;;;10.95;9.90;;;25.10;63.10;;;;;;10394723;28;20041;-60
2022/07/20 13:48:58;;;;;;;9.82;8.65;;;25.10;63.30;;;;;;10356407;28;20037;-61
2022/07/20 13:53:59;;;;;;;10.48;9.23;;;25.00;63.30;;;;;;10372520;28;20018;-60
2022/07/20 13:58:59;;;;;;;11.68;8.73;;;25.10;63.40;;;;;;10374567;28;20034;-61
2022/07/20 14:04:00;;;;;;;12.77;9.63;;;25.10;63.50;;;;;;10393101;28;20500;-61
2022/07/20 14:09:01;;;;;;;11.80;9.13;;;25.10;64.20;;;;;;10410669;28;20037;-61
2022/07/20 14:14:02;;;;;;;19.08;9.85;;;25.20;64.10;;;;;;10387490;28;20030;-60
2022/07/20 14:19:02;;;;;;;17.10;9.25;;;25.20;65.00;;;;;;10399049;28;20100;-61
2022/07/20 14:24:04;;;;;;;13.77;8.77;;;25.20;64.50;;;;;;10388128;28;20124;-60
2022/07/20 14:29:05;;;;;;;15.52;8.48;;;25.10;64.20;;;;;;10381827;28;20034;-61
2022/07/20 14:34:05;;;;;;;15.95;8.88;;;25.10;64.30;;;;;;10380534;28;20038;-61
2022/07/20 14:39:06;;;;;;;10.88;8.88;;;25.10;64.20;;;;;;10411701;28;20049;-61
2022/07/20 14:44:09;;;;;;;21.13;9.98;;;25.10;64.10;;;;;;10372163;28;20586;-61
2022/07/20 14:49:09;;;;;;;10.23;8.60;;;25.10;64.10;;;;;;10370821;28;20061;-61
2022/07/20 14:54:10;;;;;;;12.65;8.13;;;25.10;64.40;;;;;;10371968;28;20499;-60
2022/07/20 14:59:14;;;;;;;16.48;9.32;;;25.20;64.50;;;;;;10369264;28;20026;-60
2022/07/20 15:04:15;;;;;;;17.67;8.93;;;25.30;64.20;;;;;;10386276;28;20038;-60
2022/07/20 15:09:16;;;;;;;14.02;9.35;;;25.30;63.90;;;;;;10385559;28;20424;-60
2022/07/20 15:14:17;;;;;;;16.30;11.00;;;25.40;64.10;;;;;;10384097;28;20507;-60
2022/07/20 15:19:18;;;;;;;14.10;10.68;;;25.50;64.50;;;;;;10371460;28;20030;-60
2022/07/20 15:24:19;;;;;;;15.10;12.25;;;25.50;64.90;;;;;;10369278;28;20034;-60
2022/07/20 15:29:20;;;;;;;17.48;12.93;;;25.60;65.30;;;;;;10410958;28;20067;-60
2022/07/20 15:34:20;;;;;;;16.83;13.07;;;25.60;65.80;;;;;;10370521;28;20029;-60
2022/07/20 15:39:21;;;;;;;15.32;12.18;;;25.60;65.80;;;;;;10368667;28;20050;-60
2022/07/20 15:44:23;;;;;;;17.27;12.55;;;25.70;65.90;;;;;;10389636;28;20037;-61
2022/07/20 15:49:24;;;;;;;13.45;11.32;;;25.60;65.70;;;;;;10368490;28;20057;-60
2022/07/20 15:54:25;;;;;;;14.40;9.77;;;25.40;65.70;;;;;;10351979;28;20037;-59
2022/07/20 15:59:28;;;;;;;14.43;10.88;;;25.40;66.80;;;;;;10378073;28;20042;-61
2022/07/20 16:04:28;;;;;;;13.48;11.13;;;25.60;66.00;;;;;;10388945;28;20041;-61
2022/07/20 16:09:30;;;;;;;16.80;12.93;;;25.80;65.30;;;;;;10404613;28;20037;-61
2022/07/20 16:14:31;;;;;;;15.38;11.50;;;25.90;65.30;;;;;;10386393;28;20171;-60
2022/07/20 16:19:32;;;;;;;17.02;12.15;;;25.90;65.50;;;;;;10405017;28;20087;-61
2022/07/20 16:24:34;;;;;;;13.68;12.27;;;25.80;65.20;;;;;;10382623;28;20377;-61
2022/07/20 16:29:34;;;;;;;13.82;11.73;;;25.70;65.50;;;;;;10386163;28;20026;-61
2022/07/20 16:34:37;;;;;;;13.15;10.40;;;25.60;65.70;;;;;;10366868;28;20041;-61
2022/07/20 16:39:38;;;;;;;15.68;11.35;;;25.50;65.70;;;;;;10381364;28;20044;-61
2022/07/20 16:44:39;;;;;;;12.85;11.05;;;25.60;65.70;;;;;;10378776;28;20033;-61
2022/07/20 16:49:40;;;;;;;14.88;11.43;;;25.60;65.40;;;;;;10407175;28;20112;-61
2022/07/20 16:54:40;;;;;;;18.60;11.48;;;25.50;65.30;;;;;;10390813;28;20369;-61
2022/07/20 16:59:41;;;;;;;15.80;11.20;;;25.50;65.30;;;;;;10406222;28;20029;-61
2022/07/20 17:04:42;;;;;;;18.92;11.75;;;25.50;65.30;;;;;;10377119;28;20044;-62
2022/07/20 17:09:43;;;;;;;13.68;10.73;;;25.50;65.20;;;;;;10397254;28;20038;-61
2022/07/20 17:14:43;;;;;;;11.15;9.77;;;25.50;65.20;;;;;;10382919;28;20579;-62
2022/07/20 17:19:44;;;;;;;10.52;9.43;;;25.50;65.20;;;;;;10368767;28;20057;-61
2022/07/20 17:24:45;;;;;;;14.48;10.90;;;25.50;65.20;;;;;;10385189;28;20034;-62
2022/07/20 17:29:46;;;;;;;14.27;9.98;;;25.50;65.60;;;;;;10393662;28;20029;-61
2022/07/20 17:34:46;;;;;;;13.98;10.38;;;25.50;65.30;;;;;;10399688;28;20098;-61
2022/07/20 17:39:47;;;;;;;12.13;10.15;;;25.50;65.30;;;;;;10396477;28;20038;-62
2022/07/20 17:44:48;;;;;;;13.27;9.18;;;25.50;65.30;;;;;;10393864;28;20521;-62
2022/07/20 17:49:49;;;;;;;11.55;10.35;;;25.50;65.50;;;;;;10401886;28;20627;-62
2022/07/20 17:54:51;;;;;;;11.60;10.43;;;25.50;65.70;;;;;;10413512;28;20044;-62
2022/07/20 17:59:51;;;;;;;14.57;11.60;;;25.50;65.70;;;;;;10393533;28;20029;-62
2022/07/20 18:04:52;;;;;;;12.95;10.73;;;25.50;66.10;;;;;;10399732;28;20043;-61
2022/07/20 18:09:53;;;;;;;15.27;11.10;;;25.50;66.00;;;;;;10381480;28;20030;-61
2022/07/20 18:14:54;;;;;;;11.55;10.35;;;25.50;65.90;;;;;;10389827;28;20025;-62
2022/07/20 18:19:55;;;;;;;11.95;9.95;;;25.50;65.90;;;;;;10387851;28;20029;-63
2022/07/20 18:24:56;;;;;;;14.00;9.77;;;25.50;65.90;;;;;;10389419;28;20040;-61
2022/07/20 18:29:56;;;;;;;11.80;10.57;;;25.50;65.70;;;;;;10394239;28;20117;-62
2022/07/20 18:34:57;;;;;;;12.43;11.13;;;25.50;65.80;;;;;;10384366;28;20057;-62
2022/07/20 18:39:58;;;;;;;12.82;10.25;;;25.50;65.70;;;;;;10377046;28;20037;-62
2022/07/20 18:44:59;;;;;;;11.93;10.82;;;25.50;65.60;;;;;;10387367;28;20112;-62
2022/07/20 18:50:00;;;;;;;13.27;10.10;;;25.50;65.50;;;;;;10406620;28;20533;-62
2022/07/20 18:55:01;;;;;;;14.15;10.77;;;25.40;65.50;;;;;;10412518;28;20064;-62
2022/07/20 19:00:04;;;;;;;11.55;9.88;;;25.40;65.30;;;;;;10397121;28;20038;-62
2022/07/20 19:05:05;;;;;;;12.02;10.73;;;25.40;65.40;;;;;;10408156;28;20029;-62
2022/07/20 19:10:06;;;;;;;13.88;12.43;;;25.40;65.30;;;;;;10384344;28;20033;-62
2022/07/20 19:15:07;;;;;;;11.98;10.88;;;25.40;65.20;;;;;;10370243;28;20703;-62
2022/07/20 19:20:09;;;;;;;16.60;11.68;;;25.40;65.10;;;;;;10378969;28;20052;-62
2022/07/20 19:25:10;;;;;;;14.48;11.05;;;25.40;65.00;;;;;;10392856;28;20388;-63
2022/07/20 19:30:12;;;;;;;13.02;11.82;;;25.40;65.10;;;;;;10392511;28;20032;-64
2022/07/20 19:35:14;;;;;;;14.13;11.75;;;25.40;65.00;;;;;;10379623;28;20087;-63
2022/07/20 19:40:15;;;;;;;13.05;11.63;;;25.40;65.00;;;;;;10384783;28;20052;-63
2022/07/20 19:45:16;;;;;;;13.30;11.38;;;25.40;65.10;;;;;;10381623;28;20036;-63
2022/07/20 19:50:17;;;;;;;13.27;11.95;;;25.40;65.20;;;;;;10384833;28;20366;-62
2022/07/20 19:55:19;;;;;;;12.15;10.70;;;25.40;65.20;;;;;;10382837;28;20046;-63
2022/07/20 20:00:20;;;;;;;13.93;11.38;;;25.40;65.20;;;;;;10386098;28;20030;-63
2022/07/20 20:05:20;;;;;;;16.90;11.45;;;25.40;65.20;;;;;;10384745;28;20723;-62
2022/07/20 20:10:21;;;;;;;14.88;10.77;;;25.40;65.10;;;;;;10369840;28;20666;-63
2022/07/20 20:15:22;;;;;;;15.23;10.65;;;25.40;65.20;;;;;;10408343;28;20036;-66
2022/07/20 20:20:23;;;;;;;12.15;10.95;;;25.40;65.30;;;;;;10384733;28;20124;-63
2022/07/20 20:25:24;;;;;;;11.73;10.20;;;25.30;65.20;;;;;;10367336;28;20029;-63
2022/07/20 20:30:24;;;;;;;12.15;10.32;;;25.40;65.10;;;;;;10377564;28;20034;-63
2022/07/20 20:35:25;;;;;;;12.68;10.45;;;25.40;65.00;;;;;;10379022;28;20098;-63
2022/07/20 20:40:26;;;;;;;12.85;10.73;;;25.40;65.10;;;;;;10384319;28;20041;-63
2022/07/20 20:45:26;;;;;;;11.88;10.75;;;25.40;65.00;;;;;;10380159;28;20026;-63
2022/07/20 20:50:27;;;;;;;14.07;10.93;;;25.40;65.00;;;;;;10391954;28;20040;-63
2022/07/20 20:55:28;;;;;;;11.80;10.60;;;25.40;65.00;;;;;;10382298;28;20037;-63
2022/07/20 21:00:29;;;;;;;11.10;9.98;;;25.40;64.90;;;;;;10366380;28;20116;-63
2022/07/20 21:05:30;;;;;;;12.02;10.80;;;25.40;65.00;;;;;;10362566;28;20030;-63
2022/07/20 21:10:31;;;;;;;12.13;11.02;;;25.40;65.00;;;;;;10380851;28;20034;-62
2022/07/20 21:15:32;;;;;;;10.88;9.77;;;25.40;65.10;;;;;;10379994;28;20025;-63
2022/07/20 21:20:33;;;;;;;12.50;10.60;;;25.40;65.00;;;;;;10407306;28;20499;-63
2022/07/20 21:25:33;;;;;;;10.35;9.18;;;25.40;65.00;;;;;;10386129;28;20038;-63
2022/07/20 21:30:34;;;;;;;11.38;10.27;;;25.40;64.90;;;;;;10380276;28;20393;-63
2022/07/20 21:35:36;;;;;;;11.00;9.95;;;25.40;64.90;;;;;;10366068;28;20030;-63
2022/07/20 21:40:37;;;;;;;12.00;10.85;;;25.40;64.90;;;;;;10365943;28;20199;-63
2022/07/20 21:45:38;;;;;;;10.52;9.48;;;25.40;65.00;;;;;;10405279;28;20044;-63
2022/07/20 21:50:39;;;;;;;10.80;9.70;;;25.30;64.90;;;;;;10407797;28;20120;-62
2022/07/20 21:55:42;;;;;;;10.07;9.07;;;25.30;64.90;;;;;;10391002;28;20030;-62
2022/07/20 22:00:43;;;;;;;12.93;9.88;;;25.30;65.00;;;;;;10365656;28;20508;-63
2022/07/20 22:05:43;;;;;;;10.65;9.57;;;25.30;64.90;;;;;;10395881;28;20118;-62
2022/07/20 22:10:44;;;;;;;10.15;9.18;;;25.30;64.90;;;;;;10372432;28;20466;-63
2022/07/20 22:15:45;;;;;;;10.65;9.55;;;25.40;65.00;;;;;;10372424;28;20033;-62
2022/07/20 22:20:46;;;;;;;10.05;9.02;;;25.30;64.90;;;;;;10381138;28;20079;-62
2022/07/20 22:25:47;;;;;;;12.30;10.02;;;25.30;65.50;;;;;;10390501;28;20038;-61
2022/07/20 22:30:48;;;;;;;11.20;10.05;;;25.30;64.90;;;;;;10394930;28;20488;-62
2022/07/20 22:35:49;;;;;;;9.98;8.48;;;25.30;64.80;;;;;;10371602;28;20037;-62
2022/07/20 22:40:50;;;;;;;13.93;11.65;;;25.30;64.70;;;;;;10382595;28;20037;-62
2022/07/20 22:45:51;;;;;;;11.07;9.15;;;25.30;64.80;;;;;;10412058;28;20087;-62
2022/07/20 22:50:52;;;;;;;11.05;9.15;;;25.30;64.80;;;;;;10380977;28;20481;-62
2022/07/20 22:55:53;;;;;;;10.15;9.25;;;25.30;64.80;;;;;;10370731;28;20041;-63
2022/07/20 23:00:54;;;;;;;10.02;8.77;;;25.30;64.80;;;;;;10388644;28;20041;-62
2022/07/20 23:05:54;;;;;;;9.95;9.05;;;25.30;64.80;;;;;;10373552;28;20045;-62
2022/07/20 23:10:55;;;;;;;9.95;8.95;;;25.30;64.80;;;;;;10391373;28;20034;-62
2022/07/20 23:15:56;;;;;;;10.30;9.30;;;25.30;64.80;;;;;;10410643;28;20517;-62
2022/07/20 23:20:57;;;;;;;10.57;9.48;;;25.30;64.70;;;;;;10410688;28;20100;-62
2022/07/20 23:25:58;;;;;;;10.30;9.38;;;25.20;64.80;;;;;;10385599;28;20037;-62
2022/07/20 23:30:59;;;;;;;10.02;8.65;;;25.30;64.80;;;;;;10380791;28;20100;-62
2022/07/20 23:36:01;;;;;;;11.02;8.88;;;25.20;64.70;;;;;;10370429;28;20049;-61
2022/07/20 23:41:02;;;;;;;8.90;8.00;;;25.30;64.70;;;;;;10397353;28;20053;-62
2022/07/20 23:46:03;;;;;;;9.88;8.77;;;25.20;64.70;;;;;;10408821;28;20029;-62
2022/07/20 23:51:04;;;;;;;10.20;9.10;;;25.20;64.60;;;;;;10410591;28;20033;-62
2022/07/20 23:56:05;;;;;;;9.95;9.05;;;25.20;64.70;;;;;;10395292;28;20056;-62
